Halma, Minnesota
Current Conditions -  °F | °C
As of 2:35 AM on Sunday 21 Dec 2014 (Local Time) from KHCO Reporting Station
Haze Haze  
Wind Chill: 32°   Ceiling: 6000
Heat Index: 32°   Visibility: 4mi
Dew Point: 30°   Wind: 0mph
Humidity: 93%   Direction: NA
Pressure: 29.78"   Gusts: NA
Location:  48.66°N, 96.6°W
Report Text: KHCO 210835Z AUTO 00000KT 4SM BR OVC060 00/M01 A2978 RMK AO2
Loading
Personal Weather Stations






























Interactive Weather Map New forecast layout! Learn more

10-Day Weather Forecast

Advertisements
Track Severe Weather on mobile